sensor_id;sensor_type;location;lat;lon;timestamp;P1;durP1;ratioP1;P2;durP2;ratioP2
31526;SDS011;18136;42.236;-73.040;2023-04-01T00:00:56;6.28;;;4.15;;
31526;SDS011;18136;42.236;-73.040;2023-04-01T00:03:24;5.88;;;3.72;;
31526;SDS011;18136;42.236;-73.040;2023-04-01T00:05:54;7.10;;;4.60;;
31526;SDS011;18136;42.236;-73.040;2023-04-01T00:08:21;6.00;;;4.28;;
31526;SDS011;18136;42.236;-73.040;2023-04-01T00:10:47;5.20;;;4.47;;
31526;SDS011;18136;42.236;-73.040;2023-04-01T00:13:14;7.72;;;4.82;;
31526;SDS011;18136;42.236;-73.040;2023-04-01T00:15:41;8.27;;;4.03;;
31526;SDS011;18136;42.236;-73.040;2023-04-01T00:18:08;8.50;;;4.72;;
31526;SDS011;18136;42.236;-73.040;2023-04-01T00:20:34;7.70;;;4.18;;
31526;SDS011;18136;42.236;-73.040;2023-04-01T00:23:00;5.60;;;4.07;;
31526;SDS011;18136;42.236;-73.040;2023-04-01T00:25:27;9.20;;;4.63;;
31526;SDS011;18136;42.236;-73.040;2023-04-01T00:27:53;7.88;;;4.95;;
31526;SDS011;18136;42.236;-73.040;2023-04-01T00:30:20;5.70;;;4.47;;
31526;SDS011;18136;42.236;-73.040;2023-04-01T00:32:46;5.82;;;4.10;;
31526;SDS011;18136;42.236;-73.040;2023-04-01T00:35:13;6.35;;;4.30;;
31526;SDS011;18136;42.236;-73.040;2023-04-01T00:37:39;7.28;;;4.35;;
31526;SDS011;18136;42.236;-73.040;2023-04-01T00:40:06;8.68;;;5.13;;
31526;SDS011;18136;42.236;-73.040;2023-04-01T00:42:33;7.55;;;4.82;;
31526;SDS011;18136;42.236;-73.040;2023-04-01T00:45:21;8.52;;;4.78;;
31526;SDS011;18136;42.236;-73.040;2023-04-01T00:48:10;6.68;;;4.50;;
31526;SDS011;18136;42.236;-73.040;2023-04-01T00:50:44;5.43;;;4.35;;
31526;SDS011;18136;42.236;-73.040;2023-04-01T00:53:17;5.05;;;3.85;;
31526;SDS011;18136;42.236;-73.040;2023-04-01T00:55:49;9.15;;;4.32;;
31526;SDS011;18136;42.236;-73.040;2023-04-01T00:58:25;7.30;;;4.45;;
31526;SDS011;18136;42.236;-73.040;2023-04-01T01:00:56;7.40;;;4.63;;
31526;SDS011;18136;42.236;-73.040;2023-04-01T01:03:24;7.63;;;4.65;;
31526;SDS011;18136;42.236;-73.040;2023-04-01T01:11:41;7.68;;;4.82;;
31526;SDS011;18136;42.236;-73.040;2023-04-01T01:14:27;8.25;;;4.95;;
31526;SDS011;18136;42.236;-73.040;2023-04-01T01:32:04;6.07;;;4.00;;
31526;SDS011;18136;42.236;-73.040;2023-04-01T01:34:26;6.18;;;4.93;;
31526;SDS011;18136;42.236;-73.040;2023-04-01T01:37:00;7.15;;;4.85;;
31526;SDS011;18136;42.236;-73.040;2023-04-01T01:39:31;5.82;;;4.82;;
31526;SDS011;18136;42.236;-73.040;2023-04-01T01:42:03;8.20;;;4.70;;
31526;SDS011;18136;42.236;-73.040;2023-04-01T01:44:33;5.60;;;4.55;;
31526;SDS011;18136;42.236;-73.040;2023-04-01T01:47:01;7.35;;;4.93;;
31526;SDS011;18136;42.236;-73.040;2023-04-01T01:49:28;5.88;;;4.47;;
31526;SDS011;18136;42.236;-73.040;2023-04-01T01:51:57;6.72;;;4.82;;
31526;SDS011;18136;42.236;-73.040;2023-04-01T01:54:23;6.70;;;5.43;;
31526;SDS011;18136;42.236;-73.040;2023-04-01T01:56:51;5.30;;;4.80;;
31526;SDS011;18136;42.236;-73.040;2023-04-01T01:59:24;5.68;;;4.70;;
31526;SDS011;18136;42.236;-73.040;2023-04-01T02:01:52;5.88;;;4.50;;
31526;SDS011;18136;42.236;-73.040;2023-04-01T02:04:22;5.18;;;4.50;;
31526;SDS011;18136;42.236;-73.040;2023-04-01T02:06:59;7.15;;;4.60;;
31526;SDS011;18136;42.236;-73.040;2023-04-01T02:09:29;7.63;;;5.30;;
31526;SDS011;18136;42.236;-73.040;2023-04-01T02:11:57;8.52;;;5.28;;
31526;SDS011;18136;42.236;-73.040;2023-04-01T02:14:35;4.72;;;4.25;;
31526;SDS011;18136;42.236;-73.040;2023-04-01T02:17:24;6.25;;;4.35;;
31526;SDS011;18136;42.236;-73.040;2023-04-01T02:19:57;6.80;;;5.00;;
31526;SDS011;18136;42.236;-73.040;2023-04-01T02:22:36;6.63;;;4.75;;
31526;SDS011;18136;42.236;-73.040;2023-04-01T02:25:14;5.70;;;5.13;;
31526;SDS011;18136;42.236;-73.040;2023-04-01T02:27:43;6.85;;;4.90;;
31526;SDS011;18136;42.236;-73.040;2023-04-01T02:30:11;6.15;;;5.38;;
31526;SDS011;18136;42.236;-73.040;2023-04-01T02:32:39;6.32;;;4.70;;
31526;SDS011;18136;42.236;-73.040;2023-04-01T02:35:10;7.07;;;4.57;;
31526;SDS011;18136;42.236;-73.040;2023-04-01T02:37:39;6.07;;;4.90;;
31526;SDS011;18136;42.236;-73.040;2023-04-01T02:40:11;6.70;;;5.13;;
31526;SDS011;18136;42.236;-73.040;2023-04-01T02:42:38;7.43;;;5.13;;
31526;SDS011;18136;42.236;-73.040;2023-04-01T02:45:04;7.43;;;5.28;;
31526;SDS011;18136;42.236;-73.040;2023-04-01T02:47:33;6.45;;;4.90;;
31526;SDS011;18136;42.236;-73.040;2023-04-01T02:50:01;7.15;;;5.75;;
31526;SDS011;18136;42.236;-73.040;2023-04-01T02:52:28;8.98;;;5.57;;
31526;SDS011;18136;42.236;-73.040;2023-04-01T02:54:55;7.43;;;5.30;;
31526;SDS011;18136;42.236;-73.040;2023-04-01T02:57:22;6.50;;;5.68;;
31526;SDS011;18136;42.236;-73.040;2023-04-01T02:59:49;10.43;;;5.25;;
31526;SDS011;18136;42.236;-73.040;2023-04-01T03:02:15;6.22;;;5.15;;
31526;SDS011;18136;42.236;-73.040;2023-04-01T03:04:42;6.95;;;4.80;;
31526;SDS011;18136;42.236;-73.040;2023-04-01T03:07:08;8.27;;;6.22;;
31526;SDS011;18136;42.236;-73.040;2023-04-01T03:09:38;6.53;;;5.50;;
31526;SDS011;18136;42.236;-73.040;2023-04-01T03:12:05;9.20;;;5.28;;
31526;SDS011;18136;42.236;-73.040;2023-04-01T03:14:33;8.25;;;5.95;;
31526;SDS011;18136;42.236;-73.040;2023-04-01T03:16:59;9.20;;;5.90;;
31526;SDS011;18136;42.236;-73.040;2023-04-01T03:19:26;9.13;;;6.22;;
31526;SDS011;18136;42.236;-73.040;2023-04-01T03:21:52;8.07;;;6.00;;
31526;SDS011;18136;42.236;-73.040;2023-04-01T03:24:18;9.50;;;5.97;;
31526;SDS011;18136;42.236;-73.040;2023-04-01T03:26:45;7.72;;;6.75;;
31526;SDS011;18136;42.236;-73.040;2023-04-01T03:29:11;7.38;;;5.63;;
31526;SDS011;18136;42.236;-73.040;2023-04-01T03:31:37;8.52;;;7.10;;
31526;SDS011;18136;42.236;-73.040;2023-04-01T03:34:03;6.97;;;6.18;;
31526;SDS011;18136;42.236;-73.040;2023-04-01T03:36:29;8.27;;;7.20;;
31526;SDS011;18136;42.236;-73.040;2023-04-01T03:38:56;8.02;;;6.57;;
31526;SDS011;18136;42.236;-73.040;2023-04-01T03:41:23;10.23;;;7.22;;
31526;SDS011;18136;42.236;-73.040;2023-04-01T03:43:50;7.72;;;6.68;;
31526;SDS011;18136;42.236;-73.040;2023-04-01T03:46:19;7.35;;;6.35;;
31526;SDS011;18136;42.236;-73.040;2023-04-01T03:48:46;8.82;;;6.85;;
31526;SDS011;18136;42.236;-73.040;2023-04-01T03:51:12;10.38;;;6.90;;
31526;SDS011;18136;42.236;-73.040;2023-04-01T03:53:38;9.43;;;7.03;;
31526;SDS011;18136;42.236;-73.040;2023-04-01T03:56:05;9.90;;;7.70;;
31526;SDS011;18136;42.236;-73.040;2023-04-01T03:58:32;9.65;;;7.65;;
31526;SDS011;18136;42.236;-73.040;2023-04-01T04:00:58;8.32;;;6.95;;
31526;SDS011;18136;42.236;-73.040;2023-04-01T04:03:25;9.10;;;7.28;;
31526;SDS011;18136;42.236;-73.040;2023-04-01T04:05:52;9.40;;;6.75;;
31526;SDS011;18136;42.236;-73.040;2023-04-01T04:08:18;10.55;;;7.90;;
31526;SDS011;18136;42.236;-73.040;2023-04-01T04:10:46;9.65;;;7.82;;
31526;SDS011;18136;42.236;-73.040;2023-04-01T04:13:13;14.43;;;8.63;;
31526;SDS011;18136;42.236;-73.040;2023-04-01T04:15:39;9.45;;;7.57;;
31526;SDS011;18136;42.236;-73.040;2023-04-01T04:18:05;11.45;;;8.20;;
31526;SDS011;18136;42.236;-73.040;2023-04-01T04:20:32;10.60;;;7.78;;
31526;SDS011;18136;42.236;-73.040;2023-04-01T04:22:59;10.63;;;8.43;;
31526;SDS011;18136;42.236;-73.040;2023-04-01T04:25:26;11.18;;;8.02;;
31526;SDS011;18136;42.236;-73.040;2023-04-01T04:27:52;13.13;;;8.65;;
31526;SDS011;18136;42.236;-73.040;2023-04-01T04:30:18;11.05;;;8.93;;
31526;SDS011;18136;42.236;-73.040;2023-04-01T04:32:44;10.25;;;8.35;;
31526;SDS011;18136;42.236;-73.040;2023-04-01T04:35:10;9.73;;;8.23;;
31526;SDS011;18136;42.236;-73.040;2023-04-01T04:37:36;10.15;;;7.85;;
31526;SDS011;18136;42.236;-73.040;2023-04-01T04:40:03;9.38;;;7.82;;
31526;SDS011;18136;42.236;-73.040;2023-04-01T04:42:29;9.23;;;7.53;;
31526;SDS011;18136;42.236;-73.040;2023-04-01T04:44:55;10.52;;;7.82;;
31526;SDS011;18136;42.236;-73.040;2023-04-01T04:47:22;9.98;;;7.70;;
31526;SDS011;18136;42.236;-73.040;2023-04-01T04:49:48;11.48;;;8.60;;
31526;SDS011;18136;42.236;-73.040;2023-04-01T04:52:14;10.80;;;8.05;;
31526;SDS011;18136;42.236;-73.040;2023-04-01T04:54:40;10.13;;;7.85;;
31526;SDS011;18136;42.236;-73.040;2023-04-01T04:57:08;9.63;;;7.80;;
31526;SDS011;18136;42.236;-73.040;2023-04-01T04:59:34;9.32;;;7.63;;
31526;SDS011;18136;42.236;-73.040;2023-04-01T05:02:00;10.63;;;7.38;;
31526;SDS011;18136;42.236;-73.040;2023-04-01T05:04:26;9.23;;;7.40;;
31526;SDS011;18136;42.236;-73.040;2023-04-01T05:06:52;9.80;;;8.00;;
31526;SDS011;18136;42.236;-73.040;2023-04-01T05:09:18;10.18;;;7.97;;
31526;SDS011;18136;42.236;-73.040;2023-04-01T05:11:45;11.10;;;8.63;;
31526;SDS011;18136;42.236;-73.040;2023-04-01T05:14:12;12.35;;;8.95;;
31526;SDS011;18136;42.236;-73.040;2023-04-01T05:16:41;12.80;;;8.55;;
31526;SDS011;18136;42.236;-73.040;2023-04-01T05:19:07;11.20;;;8.32;;
31526;SDS011;18136;42.236;-73.040;2023-04-01T05:21:34;12.10;;;8.73;;
31526;SDS011;18136;42.236;-73.040;2023-04-01T05:24:00;13.57;;;8.75;;
31526;SDS011;18136;42.236;-73.040;2023-04-01T05:26:26;10.10;;;8.18;;
31526;SDS011;18136;42.236;-73.040;2023-04-01T05:28:52;10.45;;;8.40;;
31526;SDS011;18136;42.236;-73.040;2023-04-01T05:31:18;13.75;;;8.82;;
31526;SDS011;18136;42.236;-73.040;2023-04-01T05:33:44;11.45;;;8.57;;
31526;SDS011;18136;42.236;-73.040;2023-04-01T05:36:14;13.82;;;10.35;;
31526;SDS011;18136;42.236;-73.040;2023-04-01T05:38:41;11.95;;;9.02;;
31526;SDS011;18136;42.236;-73.040;2023-04-01T05:41:08;12.20;;;8.32;;
31526;SDS011;18136;42.236;-73.040;2023-04-01T05:43:37;11.57;;;8.63;;
31526;SDS011;18136;42.236;-73.040;2023-04-01T05:46:04;12.63;;;8.82;;
31526;SDS011;18136;42.236;-73.040;2023-04-01T05:48:32;10.52;;;8.52;;
31526;SDS011;18136;42.236;-73.040;2023-04-01T05:51:00;10.13;;;8.57;;
31526;SDS011;18136;42.236;-73.040;2023-04-01T05:53:26;9.77;;;8.50;;
31526;SDS011;18136;42.236;-73.040;2023-04-01T05:55:53;13.48;;;8.95;;
31526;SDS011;18136;42.236;-73.040;2023-04-01T05:58:19;9.35;;;7.55;;
31526;SDS011;18136;42.236;-73.040;2023-04-01T06:00:45;9.27;;;8.15;;
31526;SDS011;18136;42.236;-73.040;2023-04-01T06:03:11;10.13;;;8.65;;
31526;SDS011;18136;42.236;-73.040;2023-04-01T06:05:40;10.48;;;7.90;;
31526;SDS011;18136;42.236;-73.040;2023-04-01T06:08:12;9.57;;;7.93;;
31526;SDS011;18136;42.236;-73.040;2023-04-01T06:10:44;9.02;;;7.95;;
31526;SDS011;18136;42.236;-73.040;2023-04-01T06:16:15;12.27;;;8.35;;
31526;SDS011;18136;42.236;-73.040;2023-04-01T06:19:00;12.93;;;7.93;;
31526;SDS011;18136;42.236;-73.040;2023-04-01T06:39:18;10.52;;;8.30;;
31526;SDS011;18136;42.236;-73.040;2023-04-01T06:47:51;12.02;;;9.05;;
31526;SDS011;18136;42.236;-73.040;2023-04-01T06:50:41;16.45;;;9.98;;
31526;SDS011;18136;42.236;-73.040;2023-04-01T06:53:31;13.70;;;9.80;;
31526;SDS011;18136;42.236;-73.040;2023-04-01T06:56:04;14.20;;;9.57;;
31526;SDS011;18136;42.236;-73.040;2023-04-01T06:58:41;14.27;;;9.27;;
31526;SDS011;18136;42.236;-73.040;2023-04-01T07:01:21;11.02;;;8.40;;
31526;SDS011;18136;42.236;-73.040;2023-04-01T07:06:56;14.23;;;9.82;;
31526;SDS011;18136;42.236;-73.040;2023-04-01T07:09:28;10.63;;;8.80;;
31526;SDS011;18136;42.236;-73.040;2023-04-01T07:12:00;11.05;;;9.07;;
31526;SDS011;18136;42.236;-73.040;2023-04-01T07:14:35;13.80;;;8.52;;
31526;SDS011;18136;42.236;-73.040;2023-04-01T07:17:09;13.68;;;8.95;;
31526;SDS011;18136;42.236;-73.040;2023-04-01T07:19:56;12.73;;;9.48;;
31526;SDS011;18136;42.236;-73.040;2023-04-01T07:22:27;14.35;;;9.65;;
31526;SDS011;18136;42.236;-73.040;2023-04-01T07:25:07;11.88;;;8.88;;
31526;SDS011;18136;42.236;-73.040;2023-04-01T07:27:45;12.75;;;8.75;;
31526;SDS011;18136;42.236;-73.040;2023-04-01T07:30:19;11.70;;;9.75;;
31526;SDS011;18136;42.236;-73.040;2023-04-01T07:38:40;11.63;;;8.73;;
31526;SDS011;18136;42.236;-73.040;2023-04-01T07:46:27;9.93;;;7.95;;
31526;SDS011;18136;42.236;-73.040;2023-04-01T07:57:30;10.35;;;8.63;;
31526;SDS011;18136;42.236;-73.040;2023-04-01T08:05:29;11.35;;;8.80;;
31526;SDS011;18136;42.236;-73.040;2023-04-01T08:13:58;14.85;;;9.93;;
31526;SDS011;18136;42.236;-73.040;2023-04-01T08:16:49;11.63;;;8.95;;
31526;SDS011;18136;42.236;-73.040;2023-04-01T08:21:54;12.18;;;9.63;;
31526;SDS011;18136;42.236;-73.040;2023-04-01T08:27:03;15.15;;;10.85;;
31526;SDS011;18136;42.236;-73.040;2023-04-01T08:32:26;14.90;;;11.00;;
31526;SDS011;18136;42.236;-73.040;2023-04-01T08:37:59;12.13;;;9.65;;
31526;SDS011;18136;42.236;-73.040;2023-04-01T09:00:15;12.43;;;8.40;;
31526;SDS011;18136;42.236;-73.040;2023-04-01T09:02:57;10.52;;;8.02;;
31526;SDS011;18136;42.236;-73.040;2023-04-01T09:12:03;8.90;;;7.25;;
31526;SDS011;18136;42.236;-73.040;2023-04-01T09:25:58;11.07;;;7.53;;
31526;SDS011;18136;42.236;-73.040;2023-04-01T09:31:38;15.05;;;8.00;;
31526;SDS011;18136;42.236;-73.040;2023-04-01T09:34:30;11.18;;;7.53;;
31526;SDS011;18136;42.236;-73.040;2023-04-01T09:50:44;13.13;;;8.32;;
31526;SDS011;18136;42.236;-73.040;2023-04-01T09:53:14;10.43;;;8.07;;
31526;SDS011;18136;42.236;-73.040;2023-04-01T10:06:04;10.88;;;8.90;;
31526;SDS011;18136;42.236;-73.040;2023-04-01T10:11:18;13.38;;;8.40;;
31526;SDS011;18136;42.236;-73.040;2023-04-01T10:27:44;11.77;;;8.38;;
31526;SDS011;18136;42.236;-73.040;2023-04-01T10:30:51;13.70;;;8.60;;
31526;SDS011;18136;42.236;-73.040;2023-04-01T10:52:49;22.25;;;5.72;;
31526;SDS011;18136;42.236;-73.040;2023-04-01T11:30:00;16.63;;;3.95;;
31526;SDS011;18136;42.236;-73.040;2023-04-01T11:32:46;3.40;;;3.10;;
31526;SDS011;18136;42.236;-73.040;2023-04-01T11:35:25;3.97;;;2.80;;
31526;SDS011;18136;42.236;-73.040;2023-04-01T11:41:25;22.15;;;3.25;;
31526;SDS011;18136;42.236;-73.040;2023-04-01T11:55:46;20.25;;;2.35;;
31526;SDS011;18136;42.236;-73.040;2023-04-01T12:01:29;19.83;;;2.78;;
31526;SDS011;18136;42.236;-73.040;2023-04-01T12:10:16;13.43;;;2.15;;
31526;SDS011;18136;42.236;-73.040;2023-04-01T12:16:03;3.00;;;2.00;;
31526;SDS011;18136;42.236;-73.040;2023-04-01T12:21:35;239.20;;;9.27;;
31526;SDS011;18136;42.236;-73.040;2023-04-01T12:32:20;216.82;;;8.32;;
31526;SDS011;18136;42.236;-73.040;2023-04-01T12:35:02;116.10;;;4.22;;
31526;SDS011;18136;42.236;-73.040;2023-04-01T12:37:50;146.63;;;5.30;;
31526;SDS011;18136;42.236;-73.040;2023-04-01T12:55:01;201.75;;;7.13;;
31526;SDS011;18136;42.236;-73.040;2023-04-01T13:08:46;13.40;;;2.03;;
31526;SDS011;18136;42.236;-73.040;2023-04-01T13:16:57;171.77;;;5.00;;
31526;SDS011;18136;42.236;-73.040;2023-04-01T13:25:33;237.93;;;7.75;;
31526;SDS011;18136;42.236;-73.040;2023-04-01T13:28:23;167.70;;;5.68;;
31526;SDS011;18136;42.236;-73.040;2023-04-01T13:31:05;192.35;;;5.65;;
31526;SDS011;18136;42.236;-73.040;2023-04-01T13:33:39;244.88;;;7.63;;
31526;SDS011;18136;42.236;-73.040;2023-04-01T13:36:41;314.75;;;8.88;;
31526;SDS011;18136;42.236;-73.040;2023-04-01T13:39:41;298.88;;;9.80;;
31526;SDS011;18136;42.236;-73.040;2023-04-01T13:42:16;273.98;;;8.80;;
31526;SDS011;18136;42.236;-73.040;2023-04-01T13:56:40;169.50;;;7.65;;
31526;SDS011;18136;42.236;-73.040;2023-04-01T14:05:32;504.80;;;17.60;;
31526;SDS011;18136;42.236;-73.040;2023-04-01T14:08:10;196.18;;;6.10;;
31526;SDS011;18136;42.236;-73.040;2023-04-01T14:13:23;119.15;;;4.28;;
31526;SDS011;18136;42.236;-73.040;2023-04-01T14:33:00;152.82;;;6.68;;
31526;SDS011;18136;42.236;-73.040;2023-04-01T14:35:38;14.27;;;1.80;;
31526;SDS011;18136;42.236;-73.040;2023-04-01T14:51:48;93.15;;;4.50;;
31526;SDS011;18136;42.236;-73.040;2023-04-01T14:54:16;13.82;;;1.60;;
31526;SDS011;18136;42.236;-73.040;2023-04-01T14:59:41;13.88;;;1.75;;
31526;SDS011;18136;42.236;-73.040;2023-04-01T15:24:10;614.43;;;23.70;;
31526;SDS011;18136;42.236;-73.040;2023-04-01T15:29:52;237.73;;;8.75;;
31526;SDS011;18136;42.236;-73.040;2023-04-01T15:32:39;66.93;;;4.05;;
31526;SDS011;18136;42.236;-73.040;2023-04-01T15:43:02;21.55;;;3.60;;
31526;SDS011;18136;42.236;-73.040;2023-04-01T15:51:16;5.38;;;3.53;;
31526;SDS011;18136;42.236;-73.040;2023-04-01T16:02:31;4.65;;;3.05;;
31526;SDS011;18136;42.236;-73.040;2023-04-01T16:10:32;2.70;;;2.50;;
31526;SDS011;18136;42.236;-73.040;2023-04-01T16:13:22;5.50;;;3.33;;
31526;SDS011;18136;42.236;-73.040;2023-04-01T16:27:16;8.85;;;6.07;;
31526;SDS011;18136;42.236;-73.040;2023-04-01T16:29:48;6.72;;;5.43;;
31526;SDS011;18136;42.236;-73.040;2023-04-01T16:32:49;35.58;;;8.15;;
31526;SDS011;18136;42.236;-73.040;2023-04-01T16:38:46;6.43;;;5.78;;
31526;SDS011;18136;42.236;-73.040;2023-04-01T16:43:25;19.65;;;5.22;;
31526;SDS011;18136;42.236;-73.040;2023-04-01T16:49:17;24.90;;;4.18;;
31526;SDS011;18136;42.236;-73.040;2023-04-01T17:02:33;3.67;;;2.60;;
31526;SDS011;18136;42.236;-73.040;2023-04-01T17:05:05;2.55;;;2.25;;
31526;SDS011;18136;42.236;-73.040;2023-04-01T17:35:53;3.17;;;1.52;;
31526;SDS011;18136;42.236;-73.040;2023-04-01T17:38:40;2.47;;;1.70;;
31526;SDS011;18136;42.236;-73.040;2023-04-01T17:41:42;1.75;;;1.63;;
31526;SDS011;18136;42.236;-73.040;2023-04-01T17:44:13;1.92;;;1.70;;
31526;SDS011;18136;42.236;-73.040;2023-04-01T17:49:45;3.63;;;1.88;;
31526;SDS011;18136;42.236;-73.040;2023-04-01T17:52:29;3.53;;;1.80;;
31526;SDS011;18136;42.236;-73.040;2023-04-01T17:55:29;2.60;;;1.95;;
31526;SDS011;18136;42.236;-73.040;2023-04-01T17:58:09;2.00;;;1.60;;
31526;SDS011;18136;42.236;-73.040;2023-04-01T18:12:11;5.68;;;2.03;;
31526;SDS011;18136;42.236;-73.040;2023-04-01T18:14:51;3.15;;;1.73;;
31526;SDS011;18136;42.236;-73.040;2023-04-01T18:20:17;4.28;;;1.73;;
31526;SDS011;18136;42.236;-73.040;2023-04-01T18:23:02;2.05;;;1.55;;
31526;SDS011;18136;42.236;-73.040;2023-04-01T18:25:38;4.85;;;1.70;;
31526;SDS011;18136;42.236;-73.040;2023-04-01T18:31:08;3.05;;;1.77;;
31526;SDS011;18136;42.236;-73.040;2023-04-01T18:36:36;2.47;;;1.55;;
31526;SDS011;18136;42.236;-73.040;2023-04-01T18:39:23;8.00;;;1.90;;
31526;SDS011;18136;42.236;-73.040;2023-04-01T18:45:03;3.77;;;1.50;;
31526;SDS011;18136;42.236;-73.040;2023-04-01T18:47:48;2.28;;;1.20;;
31526;SDS011;18136;42.236;-73.040;2023-04-01T18:53:34;2.33;;;1.40;;
31526;SDS011;18136;42.236;-73.040;2023-04-01T18:59:22;2.28;;;1.48;;
31526;SDS011;18136;42.236;-73.040;2023-04-01T19:10:34;5.18;;;1.45;;
31526;SDS011;18136;42.236;-73.040;2023-04-01T19:13:17;1.50;;;1.17;;
31526;SDS011;18136;42.236;-73.040;2023-04-01T19:19:35;2.75;;;1.27;;
31526;SDS011;18136;42.236;-73.040;2023-04-01T19:24:31;5.63;;;1.27;;
31526;SDS011;18136;42.236;-73.040;2023-04-01T19:27:29;1.67;;;1.05;;
31526;SDS011;18136;42.236;-73.040;2023-04-01T19:35:47;3.30;;;1.10;;
31526;SDS011;18136;42.236;-73.040;2023-04-01T19:38:30;1.65;;;1.20;;
31526;SDS011;18136;42.236;-73.040;2023-04-01T19:46:42;2.85;;;1.42;;
31526;SDS011;18136;42.236;-73.040;2023-04-01T20:08:54;2.92;;;1.10;;
31526;SDS011;18136;42.236;-73.040;2023-04-01T20:11:45;2.97;;;1.05;;
31526;SDS011;18136;42.236;-73.040;2023-04-01T20:20:29;1.08;;;0.98;;
31526;SDS011;18136;42.236;-73.040;2023-04-01T20:23:16;4.78;;;1.17;;
31526;SDS011;18136;42.236;-73.040;2023-04-01T20:26:04;2.58;;;0.80;;
31526;SDS011;18136;42.236;-73.040;2023-04-01T20:31:29;2.67;;;1.15;;
31526;SDS011;18136;42.236;-73.040;2023-04-01T20:39:42;2.70;;;1.02;;
31526;SDS011;18136;42.236;-73.040;2023-04-01T20:45:33;4.22;;;1.20;;
31526;SDS011;18136;42.236;-73.040;2023-04-01T20:51:15;1.92;;;1.00;;
31526;SDS011;18136;42.236;-73.040;2023-04-01T20:56:41;1.75;;;0.90;;
31526;SDS011;18136;42.236;-73.040;2023-04-01T21:10:43;1.88;;;1.00;;
31526;SDS011;18136;42.236;-73.040;2023-04-01T21:13:44;1.77;;;0.90;;
31526;SDS011;18136;42.236;-73.040;2023-04-01T21:16:15;5.80;;;1.05;;
31526;SDS011;18136;42.236;-73.040;2023-04-01T21:19:08;3.38;;;1.10;;
31526;SDS011;18136;42.236;-73.040;2023-04-01T21:29:51;3.92;;;1.08;;
31526;SDS011;18136;42.236;-73.040;2023-04-01T22:05:29;2.05;;;0.70;;
31526;SDS011;18136;42.236;-73.040;2023-04-01T22:08:23;1.52;;;0.88;;
31526;SDS011;18136;42.236;-73.040;2023-04-01T22:11:07;6.00;;;0.93;;
31526;SDS011;18136;42.236;-73.040;2023-04-01T22:16:30;2.97;;;1.00;;
31526;SDS011;18136;42.236;-73.040;2023-04-01T22:24:32;3.45;;;0.90;;
31526;SDS011;18136;42.236;-73.040;2023-04-01T22:32:50;1.98;;;1.00;;
31526;SDS011;18136;42.236;-73.040;2023-04-01T22:35:44;4.40;;;0.90;;
31526;SDS011;18136;42.236;-73.040;2023-04-01T22:44:02;3.17;;;0.80;;
31526;SDS011;18136;42.236;-73.040;2023-04-01T22:49:38;1.27;;;1.00;;
31526;SDS011;18136;42.236;-73.040;2023-04-01T22:55:04;3.72;;;0.70;;
31526;SDS011;18136;42.236;-73.040;2023-04-01T22:57:46;3.55;;;1.10;;
31526;SDS011;18136;42.236;-73.040;2023-04-01T23:00:26;3.20;;;1.10;;
31526;SDS011;18136;42.236;-73.040;2023-04-01T23:05:36;3.90;;;1.20;;
31526;SDS011;18136;42.236;-73.040;2023-04-01T23:11:32;4.43;;;1.13;;
31526;SDS011;18136;42.236;-73.040;2023-04-01T23:14:30;3.95;;;1.20;;
31526;SDS011;18136;42.236;-73.040;2023-04-01T23:17:07;8.70;;;1.08;;
31526;SDS011;18136;42.236;-73.040;2023-04-01T23:33:50;7.63;;;1.30;;
31526;SDS011;18136;42.236;-73.040;2023-04-01T23:36:11;9.02;;;2.97;;
31526;SDS011;18136;42.236;-73.040;2023-04-01T23:38:40;4.85;;;1.10;;
31526;SDS011;18136;42.236;-73.040;2023-04-01T23:41:30;3.28;;;1.00;;
31526;SDS011;18136;42.236;-73.040;2023-04-01T23:46:25;5.35;;;1.13;;
31526;SDS011;18136;42.236;-73.040;2023-04-01T23:48:52;3.28;;;0.85;;
31526;SDS011;18136;42.236;-73.040;2023-04-01T23:51:21;2.10;;;1.10;;
31526;SDS011;18136;42.236;-73.040;2023-04-01T23:54:01;4.47;;;0.93;;
31526;SDS011;18136;42.236;-73.040;2023-04-01T23:56:40;8.57;;;1.20;;
31526;SDS011;18136;42.236;-73.040;2023-04-01T23:59:29;2.47;;;0.82;;
